Roseau, Minnesota
Current Conditions -  °F | °C
As of 1:14 AM on Friday 31 Oct 2014 (Local Time) from KROX Reporting Station
Clear Clear  
Wind Chill: 14°   Ceiling: Unl
Heat Index: 21°   Visibility: 10mi
Dew Point: 16°   Wind: 6mph
Humidity: 80%   Direction: 320°NW
Pressure: 30.56"   Gusts: NA
Location:  48.85°N, 95.76°W
Report Text: KROX 310614Z AUTO 32005KT 10SM CLR M06/M09 A3056 RMK AO2
Loading
Personal Weather Stations






























Interactive Weather Map
Tropical Storm Tracking
New forecast layout! Learn more

10-Day Weather Forecast

Advertisements
Track Severe Weather on mobile